sensor_id;sensor_type;location;lat;lon;timestamp;temperature;humidity
46652;DHT22;32377;52.182;5.398;2023-03-21T00:01:25;9.80;99.90
46652;DHT22;32377;52.182;5.398;2023-03-21T00:03:51;9.90;99.90
46652;DHT22;32377;52.182;5.398;2023-03-21T00:06:16;9.80;99.90
46652;DHT22;32377;52.182;5.398;2023-03-21T00:08:42;9.90;99.90
46652;DHT22;32377;52.182;5.398;2023-03-21T00:11:09;9.80;99.90
46652;DHT22;32377;52.182;5.398;2023-03-21T00:13:36;9.80;99.90
46652;DHT22;32377;52.182;5.398;2023-03-21T00:16:13;9.80;99.90
46652;DHT22;32377;52.182;5.398;2023-03-21T00:18:43;9.80;99.90
46652;DHT22;32377;52.182;5.398;2023-03-21T00:21:13;9.80;99.90
46652;DHT22;32377;52.182;5.398;2023-03-21T00:23:42;9.80;99.90
46652;DHT22;32377;52.182;5.398;2023-03-21T00:26:08;9.90;99.90
46652;DHT22;32377;52.182;5.398;2023-03-21T00:28:36;9.80;99.90
46652;DHT22;32377;52.182;5.398;2023-03-21T00:31:02;9.80;99.90
46652;DHT22;32377;52.182;5.398;2023-03-21T00:33:28;9.80;99.90
46652;DHT22;32377;52.182;5.398;2023-03-21T00:35:54;9.80;99.90
46652;DHT22;32377;52.182;5.398;2023-03-21T00:38:21;9.80;99.90
46652;DHT22;32377;52.182;5.398;2023-03-21T00:40:47;9.80;99.90
46652;DHT22;32377;52.182;5.398;2023-03-21T00:43:13;9.80;99.90
46652;DHT22;32377;52.182;5.398;2023-03-21T00:45:42;9.80;99.90
46652;DHT22;32377;52.182;5.398;2023-03-21T00:48:08;9.80;99.90
46652;DHT22;32377;52.182;5.398;2023-03-21T00:50:33;9.80;99.90
46652;DHT22;32377;52.182;5.398;2023-03-21T00:52:59;9.80;99.90
46652;DHT22;32377;52.182;5.398;2023-03-21T00:55:25;9.80;99.90
46652;DHT22;32377;52.182;5.398;2023-03-21T00:57:51;9.80;99.90
46652;DHT22;32377;52.182;5.398;2023-03-21T01:00:17;9.70;99.90
46652;DHT22;32377;52.182;5.398;2023-03-21T01:02:43;9.70;99.90
46652;DHT22;32377;52.182;5.398;2023-03-21T01:05:22;9.80;99.90
46652;DHT22;32377;52.182;5.398;2023-03-21T01:08:09;9.70;99.90
46652;DHT22;32377;52.182;5.398;2023-03-21T01:10:44;9.70;99.90
46652;DHT22;32377;52.182;5.398;2023-03-21T01:13:12;9.80;99.90
46652;DHT22;32377;52.182;5.398;2023-03-21T01:15:49;9.80;99.90
46652;DHT22;32377;52.182;5.398;2023-03-21T01:18:16;9.70;99.90
46652;DHT22;32377;52.182;5.398;2023-03-21T01:20:43;9.80;99.90
46652;DHT22;32377;52.182;5.398;2023-03-21T01:23:11;9.70;99.90
46652;DHT22;32377;52.182;5.398;2023-03-21T01:25:37;9.70;99.90
46652;DHT22;32377;52.182;5.398;2023-03-21T01:28:03;9.80;99.90
46652;DHT22;32377;52.182;5.398;2023-03-21T01:30:29;9.70;99.90
46652;DHT22;32377;52.182;5.398;2023-03-21T01:32:55;9.70;99.90
46652;DHT22;32377;52.182;5.398;2023-03-21T01:35:21;9.70;99.90
46652;DHT22;32377;52.182;5.398;2023-03-21T01:37:47;9.80;99.90
46652;DHT22;32377;52.182;5.398;2023-03-21T01:40:22;9.70;99.90
46652;DHT22;32377;52.182;5.398;2023-03-21T01:42:48;9.70;99.90
46652;DHT22;32377;52.182;5.398;2023-03-21T01:48:18;9.70;99.90
46652;DHT22;32377;52.182;5.398;2023-03-21T01:50:46;9.70;99.90
46652;DHT22;32377;52.182;5.398;2023-03-21T01:53:12;9.70;99.90
46652;DHT22;32377;52.182;5.398;2023-03-21T01:55:39;9.70;99.90
46652;DHT22;32377;52.182;5.398;2023-03-21T01:58:07;9.70;99.90
46652;DHT22;32377;52.182;5.398;2023-03-21T02:00:34;9.70;99.90
46652;DHT22;32377;52.182;5.398;2023-03-21T02:03:04;9.70;99.90
46652;DHT22;32377;52.182;5.398;2023-03-21T02:08:17;9.70;99.90
46652;DHT22;32377;52.182;5.398;2023-03-21T02:10:44;9.70;99.90
46652;DHT22;32377;52.182;5.398;2023-03-21T02:13:12;9.70;99.90
46652;DHT22;32377;52.182;5.398;2023-03-21T02:15:40;9.70;99.90
46652;DHT22;32377;52.182;5.398;2023-03-21T02:18:18;9.70;99.90
46652;DHT22;32377;52.182;5.398;2023-03-21T02:21:21;9.70;99.90
46652;DHT22;32377;52.182;5.398;2023-03-21T02:23:57;9.60;99.90
46652;DHT22;32377;52.182;5.398;2023-03-21T02:26:55;9.60;99.90
46652;DHT22;32377;52.182;5.398;2023-03-21T02:35:37;9.60;99.90
46652;DHT22;32377;52.182;5.398;2023-03-21T02:38:49;9.60;99.90
46652;DHT22;32377;52.182;5.398;2023-03-21T02:41:02;9.70;99.90
46652;DHT22;32377;52.182;5.398;2023-03-21T02:46:27;9.60;99.90
46652;DHT22;32377;52.182;5.398;2023-03-21T02:51:44;9.60;99.90
46652;DHT22;32377;52.182;5.398;2023-03-21T02:54:13;9.60;99.90
46652;DHT22;32377;52.182;5.398;2023-03-21T02:56:40;9.60;99.90
46652;DHT22;32377;52.182;5.398;2023-03-21T02:59:08;9.70;99.90
46652;DHT22;32377;52.182;5.398;2023-03-21T03:01:34;9.60;99.90
46652;DHT22;32377;52.182;5.398;2023-03-21T03:04:00;9.60;99.90
46652;DHT22;32377;52.182;5.398;2023-03-21T03:06:30;9.60;99.90
46652;DHT22;32377;52.182;5.398;2023-03-21T03:11:43;9.60;99.90
46652;DHT22;32377;52.182;5.398;2023-03-21T03:14:26;9.60;99.90
46652;DHT22;32377;52.182;5.398;2023-03-21T03:22:40;9.60;99.90
46652;DHT22;32377;52.182;5.398;2023-03-21T03:25:11;9.60;99.90
46652;DHT22;32377;52.182;5.398;2023-03-21T03:27:42;9.60;99.90
46652;DHT22;32377;52.182;5.398;2023-03-21T03:30:10;9.60;99.90
46652;DHT22;32377;52.182;5.398;2023-03-21T03:32:43;9.50;99.90
46652;DHT22;32377;52.182;5.398;2023-03-21T03:35:12;9.50;99.90
46652;DHT22;32377;52.182;5.398;2023-03-21T03:37:40;9.50;99.90
46652;DHT22;32377;52.182;5.398;2023-03-21T03:40:14;9.50;99.90
46652;DHT22;32377;52.182;5.398;2023-03-21T03:42:47;9.50;99.90
46652;DHT22;32377;52.182;5.398;2023-03-21T03:45:14;9.50;99.90
46652;DHT22;32377;52.182;5.398;2023-03-21T03:50:32;9.50;99.90
46652;DHT22;32377;52.182;5.398;2023-03-21T03:55:29;9.50;99.90
46652;DHT22;32377;52.182;5.398;2023-03-21T03:58:00;9.50;99.90
46652;DHT22;32377;52.182;5.398;2023-03-21T04:00:26;9.50;99.90
46652;DHT22;32377;52.182;5.398;2023-03-21T04:02:53;9.50;99.90
46652;DHT22;32377;52.182;5.398;2023-03-21T04:05:18;9.50;99.90
46652;DHT22;32377;52.182;5.398;2023-03-21T04:07:46;9.50;99.90
46652;DHT22;32377;52.182;5.398;2023-03-21T04:10:15;9.50;99.90
46652;DHT22;32377;52.182;5.398;2023-03-21T04:12:41;9.50;99.90
46652;DHT22;32377;52.182;5.398;2023-03-21T04:15:07;9.50;99.90
46652;DHT22;32377;52.182;5.398;2023-03-21T04:17:33;9.50;99.90
46652;DHT22;32377;52.182;5.398;2023-03-21T04:19:58;9.40;99.90
46652;DHT22;32377;52.182;5.398;2023-03-21T04:22:24;9.50;99.90
46652;DHT22;32377;52.182;5.398;2023-03-21T04:24:50;9.50;99.90
46652;DHT22;32377;52.182;5.398;2023-03-21T04:27:16;9.50;99.90
46652;DHT22;32377;52.182;5.398;2023-03-21T04:29:41;9.50;99.90
46652;DHT22;32377;52.182;5.398;2023-03-21T04:32:07;9.50;99.90
46652;DHT22;32377;52.182;5.398;2023-03-21T04:34:44;9.50;99.90
46652;DHT22;32377;52.182;5.398;2023-03-21T04:37:16;9.50;99.90
46652;DHT22;32377;52.182;5.398;2023-03-21T04:39:41;9.50;99.90
46652;DHT22;32377;52.182;5.398;2023-03-21T04:42:07;9.40;99.90
46652;DHT22;32377;52.182;5.398;2023-03-21T04:44:33;9.40;99.90
46652;DHT22;32377;52.182;5.398;2023-03-21T04:46:58;9.40;99.90
46652;DHT22;32377;52.182;5.398;2023-03-21T04:49:24;9.40;99.90
46652;DHT22;32377;52.182;5.398;2023-03-21T04:51:50;9.50;99.90
46652;DHT22;32377;52.182;5.398;2023-03-21T04:54:15;9.40;99.90
46652;DHT22;32377;52.182;5.398;2023-03-21T04:59:14;9.50;99.90
46652;DHT22;32377;52.182;5.398;2023-03-21T05:01:40;9.40;99.90
46652;DHT22;32377;52.182;5.398;2023-03-21T05:04:08;9.40;99.90
46652;DHT22;32377;52.182;5.398;2023-03-21T05:06:34;9.40;99.90
46652;DHT22;32377;52.182;5.398;2023-03-21T05:09:01;9.40;99.90
46652;DHT22;32377;52.182;5.398;2023-03-21T05:11:30;9.40;99.90
46652;DHT22;32377;52.182;5.398;2023-03-21T05:13:57;9.40;99.90
46652;DHT22;32377;52.182;5.398;2023-03-21T05:16:23;9.40;99.90
46652;DHT22;32377;52.182;5.398;2023-03-21T05:18:54;9.40;99.90
46652;DHT22;32377;52.182;5.398;2023-03-21T05:21:22;9.40;99.90
46652;DHT22;32377;52.182;5.398;2023-03-21T05:23:48;9.30;99.90
46652;DHT22;32377;52.182;5.398;2023-03-21T05:26:20;9.40;99.90
46652;DHT22;32377;52.182;5.398;2023-03-21T05:28:45;9.30;99.90
46652;DHT22;32377;52.182;5.398;2023-03-21T05:31:13;9.30;99.90
46652;DHT22;32377;52.182;5.398;2023-03-21T05:33:41;9.30;99.90
46652;DHT22;32377;52.182;5.398;2023-03-21T05:36:07;9.30;99.90
46652;DHT22;32377;52.182;5.398;2023-03-21T05:38:33;9.30;99.90
46652;DHT22;32377;52.182;5.398;2023-03-21T05:40:59;9.30;99.90
46652;DHT22;32377;52.182;5.398;2023-03-21T05:43:25;9.20;99.90
46652;DHT22;32377;52.182;5.398;2023-03-21T05:45:51;9.20;99.90
46652;DHT22;32377;52.182;5.398;2023-03-21T05:48:17;9.20;99.90
46652;DHT22;32377;52.182;5.398;2023-03-21T05:50:42;9.30;99.90
46652;DHT22;32377;52.182;5.398;2023-03-21T05:53:08;9.30;99.90
46652;DHT22;32377;52.182;5.398;2023-03-21T05:55:34;9.30;99.90
46652;DHT22;32377;52.182;5.398;2023-03-21T05:57:59;9.30;99.90
46652;DHT22;32377;52.182;5.398;2023-03-21T06:00:25;9.30;99.90
46652;DHT22;32377;52.182;5.398;2023-03-21T06:02:51;9.30;99.90
46652;DHT22;32377;52.182;5.398;2023-03-21T06:05:16;9.30;99.90
46652;DHT22;32377;52.182;5.398;2023-03-21T06:07:42;9.30;99.90
46652;DHT22;32377;52.182;5.398;2023-03-21T06:10:08;9.30;99.90
46652;DHT22;32377;52.182;5.398;2023-03-21T06:12:34;9.30;99.90
46652;DHT22;32377;52.182;5.398;2023-03-21T06:15:01;9.30;99.90
46652;DHT22;32377;52.182;5.398;2023-03-21T06:17:26;9.30;99.90
46652;DHT22;32377;52.182;5.398;2023-03-21T06:19:52;9.30;99.90
46652;DHT22;32377;52.182;5.398;2023-03-21T06:22:18;9.40;99.90
46652;DHT22;32377;52.182;5.398;2023-03-21T06:24:44;9.30;99.90
46652;DHT22;32377;52.182;5.398;2023-03-21T06:27:10;9.40;99.90
46652;DHT22;32377;52.182;5.398;2023-03-21T06:29:35;9.40;99.90
46652;DHT22;32377;52.182;5.398;2023-03-21T06:32:01;9.40;99.90
46652;DHT22;32377;52.182;5.398;2023-03-21T06:34:27;9.40;99.90
46652;DHT22;32377;52.182;5.398;2023-03-21T06:36:52;9.40;99.90
46652;DHT22;32377;52.182;5.398;2023-03-21T06:39:20;9.40;99.90
46652;DHT22;32377;52.182;5.398;2023-03-21T06:41:45;9.40;99.90
46652;DHT22;32377;52.182;5.398;2023-03-21T06:44:11;9.40;99.90
46652;DHT22;32377;52.182;5.398;2023-03-21T06:46:37;9.40;99.90
46652;DHT22;32377;52.182;5.398;2023-03-21T06:49:02;9.50;99.90
46652;DHT22;32377;52.182;5.398;2023-03-21T06:51:28;9.50;99.90
46652;DHT22;32377;52.182;5.398;2023-03-21T06:53:53;9.40;99.90
46652;DHT22;32377;52.182;5.398;2023-03-21T06:56:19;9.50;99.90
46652;DHT22;32377;52.182;5.398;2023-03-21T06:58:45;9.40;99.90
46652;DHT22;32377;52.182;5.398;2023-03-21T07:01:11;9.40;99.90
46652;DHT22;32377;52.182;5.398;2023-03-21T07:03:38;9.50;99.90
46652;DHT22;32377;52.182;5.398;2023-03-21T07:06:08;9.50;99.90
46652;DHT22;32377;52.182;5.398;2023-03-21T07:08:37;9.50;99.90
46652;DHT22;32377;52.182;5.398;2023-03-21T07:11:03;9.50;99.90
46652;DHT22;32377;52.182;5.398;2023-03-21T07:13:29;9.50;99.90
46652;DHT22;32377;52.182;5.398;2023-03-21T07:15:54;9.50;99.90
46652;DHT22;32377;52.182;5.398;2023-03-21T07:18:20;9.50;99.90
46652;DHT22;32377;52.182;5.398;2023-03-21T07:20:47;9.50;99.90
46652;DHT22;32377;52.182;5.398;2023-03-21T07:23:20;9.60;99.90
46652;DHT22;32377;52.182;5.398;2023-03-21T07:25:48;9.60;99.90
46652;DHT22;32377;52.182;5.398;2023-03-21T07:28:15;9.60;99.90
46652;DHT22;32377;52.182;5.398;2023-03-21T07:30:41;9.60;99.90
46652;DHT22;32377;52.182;5.398;2023-03-21T07:33:07;9.60;99.90
46652;DHT22;32377;52.182;5.398;2023-03-21T07:35:33;9.60;99.90
46652;DHT22;32377;52.182;5.398;2023-03-21T07:38:00;9.70;99.90
46652;DHT22;32377;52.182;5.398;2023-03-21T07:40:26;9.60;99.90
46652;DHT22;32377;52.182;5.398;2023-03-21T07:42:51;9.60;99.90
46652;DHT22;32377;52.182;5.398;2023-03-21T07:45:17;9.70;99.90
46652;DHT22;32377;52.182;5.398;2023-03-21T07:47:48;9.70;99.90
46652;DHT22;32377;52.182;5.398;2023-03-21T07:50:14;9.70;99.90
46652;DHT22;32377;52.182;5.398;2023-03-21T07:52:40;9.80;99.90
46652;DHT22;32377;52.182;5.398;2023-03-21T07:55:06;9.80;99.90
46652;DHT22;32377;52.182;5.398;2023-03-21T07:57:32;9.80;99.90
46652;DHT22;32377;52.182;5.398;2023-03-21T07:59:58;9.90;99.90
46652;DHT22;32377;52.182;5.398;2023-03-21T08:02:24;9.90;99.90
46652;DHT22;32377;52.182;5.398;2023-03-21T08:04:49;9.90;99.90
46652;DHT22;32377;52.182;5.398;2023-03-21T08:07:15;9.90;99.90
46652;DHT22;32377;52.182;5.398;2023-03-21T08:09:44;10.00;99.90
46652;DHT22;32377;52.182;5.398;2023-03-21T08:12:10;10.00;99.90
46652;DHT22;32377;52.182;5.398;2023-03-21T08:14:36;10.00;99.90
46652;DHT22;32377;52.182;5.398;2023-03-21T08:17:03;10.00;99.90
46652;DHT22;32377;52.182;5.398;2023-03-21T08:19:29;10.00;99.90
46652;DHT22;32377;52.182;5.398;2023-03-21T08:21:55;10.00;99.90
46652;DHT22;32377;52.182;5.398;2023-03-21T08:24:24;10.10;99.90
46652;DHT22;32377;52.182;5.398;2023-03-21T08:26:50;10.10;99.90
46652;DHT22;32377;52.182;5.398;2023-03-21T08:29:15;10.20;99.90
46652;DHT22;32377;52.182;5.398;2023-03-21T08:31:41;10.10;99.90
46652;DHT22;32377;52.182;5.398;2023-03-21T08:34:07;10.30;99.90
46652;DHT22;32377;52.182;5.398;2023-03-21T08:36:35;10.30;99.90
46652;DHT22;32377;52.182;5.398;2023-03-21T08:39:02;10.30;99.90
46652;DHT22;32377;52.182;5.398;2023-03-21T08:41:34;10.30;99.90
46652;DHT22;32377;52.182;5.398;2023-03-21T08:44:01;10.40;99.90
46652;DHT22;32377;52.182;5.398;2023-03-21T08:46:28;10.30;99.90
46652;DHT22;32377;52.182;5.398;2023-03-21T08:48:54;10.30;99.90
46652;DHT22;32377;52.182;5.398;2023-03-21T08:51:20;10.40;99.90
46652;DHT22;32377;52.182;5.398;2023-03-21T08:53:47;10.30;99.90
46652;DHT22;32377;52.182;5.398;2023-03-21T08:56:15;10.40;99.90
46652;DHT22;32377;52.182;5.398;2023-03-21T08:58:41;10.50;99.90
46652;DHT22;32377;52.182;5.398;2023-03-21T09:01:07;10.50;99.90
46652;DHT22;32377;52.182;5.398;2023-03-21T09:03:36;10.60;99.90
46652;DHT22;32377;52.182;5.398;2023-03-21T09:06:02;10.70;99.90
46652;DHT22;32377;52.182;5.398;2023-03-21T09:08:28;10.60;99.90
46652;DHT22;32377;52.182;5.398;2023-03-21T09:10:54;10.70;99.90
46652;DHT22;32377;52.182;5.398;2023-03-21T09:13:20;10.70;99.90
46652;DHT22;32377;52.182;5.398;2023-03-21T09:15:46;10.70;99.90
46652;DHT22;32377;52.182;5.398;2023-03-21T09:18:12;10.70;99.90
46652;DHT22;32377;52.182;5.398;2023-03-21T09:20:41;10.70;99.90
46652;DHT22;32377;52.182;5.398;2023-03-21T09:23:08;10.60;99.90
46652;DHT22;32377;52.182;5.398;2023-03-21T09:25:35;10.60;99.90
46652;DHT22;32377;52.182;5.398;2023-03-21T09:28:02;10.70;99.90
46652;DHT22;32377;52.182;5.398;2023-03-21T09:30:32;10.70;99.90
46652;DHT22;32377;52.182;5.398;2023-03-21T09:33:00;10.80;99.90
46652;DHT22;32377;52.182;5.398;2023-03-21T09:35:27;10.90;99.90
46652;DHT22;32377;52.182;5.398;2023-03-21T09:37:53;10.90;99.90
46652;DHT22;32377;52.182;5.398;2023-03-21T09:49:21;11.10;99.90
46652;DHT22;32377;52.182;5.398;2023-03-21T09:51:50;11.20;99.90
46652;DHT22;32377;52.182;5.398;2023-03-21T09:54:24;11.30;99.90
46652;DHT22;32377;52.182;5.398;2023-03-21T09:56:57;11.30;99.90
46652;DHT22;32377;52.182;5.398;2023-03-21T09:59:32;11.20;99.90
46652;DHT22;32377;52.182;5.398;2023-03-21T10:02:08;11.30;99.90
46652;DHT22;32377;52.182;5.398;2023-03-21T10:04:39;11.20;99.90
46652;DHT22;32377;52.182;5.398;2023-03-21T10:07:05;11.30;99.90
46652;DHT22;32377;52.182;5.398;2023-03-21T10:09:32;11.40;99.90
46652;DHT22;32377;52.182;5.398;2023-03-21T10:12:04;11.40;99.90
46652;DHT22;32377;52.182;5.398;2023-03-21T10:14:36;11.30;99.90
46652;DHT22;32377;52.182;5.398;2023-03-21T10:17:17;11.30;99.90
46652;DHT22;32377;52.182;5.398;2023-03-21T10:19:49;11.30;99.90
46652;DHT22;32377;52.182;5.398;2023-03-21T10:22:19;11.30;99.90
46652;DHT22;32377;52.182;5.398;2023-03-21T10:24:45;11.40;99.90
46652;DHT22;32377;52.182;5.398;2023-03-21T10:27:11;11.60;99.90
46652;DHT22;32377;52.182;5.398;2023-03-21T10:29:42;11.60;99.90
46652;DHT22;32377;52.182;5.398;2023-03-21T10:32:14;11.70;99.90
46652;DHT22;32377;52.182;5.398;2023-03-21T10:34:44;11.80;99.90
46652;DHT22;32377;52.182;5.398;2023-03-21T10:37:12;11.80;99.90
46652;DHT22;32377;52.182;5.398;2023-03-21T10:39:40;11.90;99.90
46652;DHT22;32377;52.182;5.398;2023-03-21T10:42:19;12.00;99.90
46652;DHT22;32377;52.182;5.398;2023-03-21T10:44:48;11.90;99.90
46652;DHT22;32377;52.182;5.398;2023-03-21T10:47:19;12.00;99.90
46652;DHT22;32377;52.182;5.398;2023-03-21T10:49:46;12.10;99.90
46652;DHT22;32377;52.182;5.398;2023-03-21T10:52:16;12.20;99.90
46652;DHT22;32377;52.182;5.398;2023-03-21T10:54:42;12.40;99.90
46652;DHT22;32377;52.182;5.398;2023-03-21T10:59:17;12.50;99.90
46652;DHT22;32377;52.182;5.398;2023-03-21T11:01:48;12.60;99.90
46652;DHT22;32377;52.182;5.398;2023-03-21T11:04:21;12.50;99.90
46652;DHT22;32377;52.182;5.398;2023-03-21T11:06:57;12.60;99.90
46652;DHT22;32377;52.182;5.398;2023-03-21T11:09:25;12.60;99.90
46652;DHT22;32377;52.182;5.398;2023-03-21T11:12:03;12.70;99.90
46652;DHT22;32377;52.182;5.398;2023-03-21T11:14:53;12.70;99.90
46652;DHT22;32377;52.182;5.398;2023-03-21T11:17:27;12.70;99.90
46652;DHT22;32377;52.182;5.398;2023-03-21T11:19:57;12.80;99.90
46652;DHT22;32377;52.182;5.398;2023-03-21T11:22:27;12.80;99.90
46652;DHT22;32377;52.182;5.398;2023-03-21T11:24:59;12.90;99.90
46652;DHT22;32377;52.182;5.398;2023-03-21T11:27:28;12.70;99.90
46652;DHT22;32377;52.182;5.398;2023-03-21T11:29:55;12.90;99.90
46652;DHT22;32377;52.182;5.398;2023-03-21T11:32:33;12.80;99.90
46652;DHT22;32377;52.182;5.398;2023-03-21T11:35:02;13.10;99.90
46652;DHT22;32377;52.182;5.398;2023-03-21T11:37:37;13.20;99.90
46652;DHT22;32377;52.182;5.398;2023-03-21T11:40:20;13.00;99.90
46652;DHT22;32377;52.182;5.398;2023-03-21T11:42:51;13.00;99.90
46652;DHT22;32377;52.182;5.398;2023-03-21T11:45:28;13.00;99.90
46652;DHT22;32377;52.182;5.398;2023-03-21T11:47:59;13.10;99.90
46652;DHT22;32377;52.182;5.398;2023-03-21T11:58:30;13.00;99.90
46652;DHT22;32377;52.182;5.398;2023-03-21T12:06:31;13.30;99.90
46652;DHT22;32377;52.182;5.398;2023-03-21T12:09:09;13.30;99.90
46652;DHT22;32377;52.182;5.398;2023-03-21T12:11:44;13.20;99.90
46652;DHT22;32377;52.182;5.398;2023-03-21T12:17:39;13.00;99.90
46652;DHT22;32377;52.182;5.398;2023-03-21T12:20:23;13.10;99.90
46652;DHT22;32377;52.182;5.398;2023-03-21T12:23:07;13.30;99.90
46652;DHT22;32377;52.182;5.398;2023-03-21T12:28:34;13.40;99.90
46652;DHT22;32377;52.182;5.398;2023-03-21T12:31:12;13.40;99.90
46652;DHT22;32377;52.182;5.398;2023-03-21T12:39:03;13.30;99.90
46652;DHT22;32377;52.182;5.398;2023-03-21T12:41:42;13.40;99.90
46652;DHT22;32377;52.182;5.398;2023-03-21T12:44:14;13.40;99.90
46652;DHT22;32377;52.182;5.398;2023-03-21T12:46:54;13.60;99.90
46652;DHT22;32377;52.182;5.398;2023-03-21T12:49:38;13.70;99.90
46652;DHT22;32377;52.182;5.398;2023-03-21T12:52:13;13.90;99.90
46652;DHT22;32377;52.182;5.398;2023-03-21T12:54:46;14.00;99.90
46652;DHT22;32377;52.182;5.398;2023-03-21T12:57:19;14.30;99.90
46652;DHT22;32377;52.182;5.398;2023-03-21T13:02:41;14.20;99.90
46652;DHT22;32377;52.182;5.398;2023-03-21T13:05:21;14.00;99.90
46652;DHT22;32377;52.182;5.398;2023-03-21T13:07:55;14.10;99.90
46652;DHT22;32377;52.182;5.398;2023-03-21T13:10:22;14.10;99.90
46652;DHT22;32377;52.182;5.398;2023-03-21T13:12:57;14.00;99.90
46652;DHT22;32377;52.182;5.398;2023-03-21T13:18:28;13.60;99.90
46652;DHT22;32377;52.182;5.398;2023-03-21T13:20:57;13.70;99.90
46652;DHT22;32377;52.182;5.398;2023-03-21T13:23:33;13.90;99.90
46652;DHT22;32377;52.182;5.398;2023-03-21T13:25:59;13.90;99.90
46652;DHT22;32377;52.182;5.398;2023-03-21T13:28:28;14.10;99.90
46652;DHT22;32377;52.182;5.398;2023-03-21T13:33:39;14.30;99.90
46652;DHT22;32377;52.182;5.398;2023-03-21T13:36:12;14.30;99.90
46652;DHT22;32377;52.182;5.398;2023-03-21T13:38:40;14.40;99.90
46652;DHT22;32377;52.182;5.398;2023-03-21T13:41:35;14.40;99.90
46652;DHT22;32377;52.182;5.398;2023-03-21T14:02:28;14.20;99.90
46652;DHT22;32377;52.182;5.398;2023-03-21T14:05:01;14.10;99.90
46652;DHT22;32377;52.182;5.398;2023-03-21T14:07:30;14.00;99.90
46652;DHT22;32377;52.182;5.398;2023-03-21T14:10:05;13.90;99.90
46652;DHT22;32377;52.182;5.398;2023-03-21T14:12:40;13.90;99.90
46652;DHT22;32377;52.182;5.398;2023-03-21T14:17:38;14.00;99.90
46652;DHT22;32377;52.182;5.398;2023-03-21T14:20:19;14.10;99.90
46652;DHT22;32377;52.182;5.398;2023-03-21T14:22:48;14.00;99.90
46652;DHT22;32377;52.182;5.398;2023-03-21T14:25:17;13.90;99.90
46652;DHT22;32377;52.182;5.398;2023-03-21T14:27:50;13.80;99.90
46652;DHT22;32377;52.182;5.398;2023-03-21T14:30:29;13.90;99.90
46652;DHT22;32377;52.182;5.398;2023-03-21T14:33:17;13.70;99.90
46652;DHT22;32377;52.182;5.398;2023-03-21T14:35:46;13.70;99.90
46652;DHT22;32377;52.182;5.398;2023-03-21T14:38:24;13.60;99.90
46652;DHT22;32377;52.182;5.398;2023-03-21T14:40:53;13.70;99.90
46652;DHT22;32377;52.182;5.398;2023-03-21T14:43:21;13.60;99.90
46652;DHT22;32377;52.182;5.398;2023-03-21T14:45:50;13.70;99.90
46652;DHT22;32377;52.182;5.398;2023-03-21T14:48:17;13.70;99.90
46652;DHT22;32377;52.182;5.398;2023-03-21T14:50:47;13.70;99.90
46652;DHT22;32377;52.182;5.398;2023-03-21T14:53:19;13.60;99.90
46652;DHT22;32377;52.182;5.398;2023-03-21T14:55:49;13.70;99.90
46652;DHT22;32377;52.182;5.398;2023-03-21T14:58:16;13.70;99.90
46652;DHT22;32377;52.182;5.398;2023-03-21T15:00:47;13.70;99.90
46652;DHT22;32377;52.182;5.398;2023-03-21T15:03:16;13.60;99.90
46652;DHT22;32377;52.182;5.398;2023-03-21T15:05:42;13.50;99.90
46652;DHT22;32377;52.182;5.398;2023-03-21T15:08:19;13.50;99.90
46652;DHT22;32377;52.182;5.398;2023-03-21T15:11:03;13.50;99.90
46652;DHT22;32377;52.182;5.398;2023-03-21T15:13:36;13.50;99.90
46652;DHT22;32377;52.182;5.398;2023-03-21T15:16:04;13.50;99.90
46652;DHT22;32377;52.182;5.398;2023-03-21T15:18:32;13.50;99.90
46652;DHT22;32377;52.182;5.398;2023-03-21T15:21:13;13.60;99.90
46652;DHT22;32377;52.182;5.398;2023-03-21T15:23:44;13.60;99.90
46652;DHT22;32377;52.182;5.398;2023-03-21T15:26:19;13.60;99.90
46652;DHT22;32377;52.182;5.398;2023-03-21T15:28:49;13.60;99.90
46652;DHT22;32377;52.182;5.398;2023-03-21T15:31:21;13.60;99.90
46652;DHT22;32377;52.182;5.398;2023-03-21T15:33:48;13.60;99.90
46652;DHT22;32377;52.182;5.398;2023-03-21T15:36:26;13.60;99.90
46652;DHT22;32377;52.182;5.398;2023-03-21T15:38:53;13.60;99.90
46652;DHT22;32377;52.182;5.398;2023-03-21T15:41:27;13.50;99.90
46652;DHT22;32377;52.182;5.398;2023-03-21T15:46:43;13.30;99.90
46652;DHT22;32377;52.182;5.398;2023-03-21T15:51:48;13.20;99.90
46652;DHT22;32377;52.182;5.398;2023-03-21T15:54:19;13.30;99.90
46652;DHT22;32377;52.182;5.398;2023-03-21T15:56:46;13.20;99.90
46652;DHT22;32377;52.182;5.398;2023-03-21T15:59:16;13.20;99.90
46652;DHT22;32377;52.182;5.398;2023-03-21T16:01:46;13.20;99.90
46652;DHT22;32377;52.182;5.398;2023-03-21T16:04:12;13.20;99.90
46652;DHT22;32377;52.182;5.398;2023-03-21T16:06:50;13.10;99.90
46652;DHT22;32377;52.182;5.398;2023-03-21T16:09:17;13.10;99.90
46652;DHT22;32377;52.182;5.398;2023-03-21T16:11:54;13.10;99.90
46652;DHT22;32377;52.182;5.398;2023-03-21T16:14:21;13.10;99.90
46652;DHT22;32377;52.182;5.398;2023-03-21T16:16:47;13.10;99.90
46652;DHT22;32377;52.182;5.398;2023-03-21T16:19:14;12.90;99.90
46652;DHT22;32377;52.182;5.398;2023-03-21T16:21:39;12.90;99.90
46652;DHT22;32377;52.182;5.398;2023-03-21T16:24:06;12.70;99.90
46652;DHT22;32377;52.182;5.398;2023-03-21T16:26:35;12.60;99.90
46652;DHT22;32377;52.182;5.398;2023-03-21T16:29:02;12.60;99.90
46652;DHT22;32377;52.182;5.398;2023-03-21T16:31:30;12.40;99.90
46652;DHT22;32377;52.182;5.398;2023-03-21T16:33:56;12.30;99.90
46652;DHT22;32377;52.182;5.398;2023-03-21T16:36:33;12.30;99.90
46652;DHT22;32377;52.182;5.398;2023-03-21T16:39:21;12.10;99.90
46652;DHT22;32377;52.182;5.398;2023-03-21T16:41:47;12.10;99.90
46652;DHT22;32377;52.182;5.398;2023-03-21T16:44:14;12.00;99.90
46652;DHT22;32377;52.182;5.398;2023-03-21T16:46:40;12.10;99.90
46652;DHT22;32377;52.182;5.398;2023-03-21T16:49:17;12.10;99.90
46652;DHT22;32377;52.182;5.398;2023-03-21T16:51:43;12.20;99.90
46652;DHT22;32377;52.182;5.398;2023-03-21T16:54:09;12.10;99.90
46652;DHT22;32377;52.182;5.398;2023-03-21T16:59:14;12.10;99.90
46652;DHT22;32377;52.182;5.398;2023-03-21T17:01:41;12.20;99.90
46652;DHT22;32377;52.182;5.398;2023-03-21T17:04:07;12.10;99.90
46652;DHT22;32377;52.182;5.398;2023-03-21T17:06:43;12.20;99.90
46652;DHT22;32377;52.182;5.398;2023-03-21T17:09:12;12.20;99.90
46652;DHT22;32377;52.182;5.398;2023-03-21T17:11:39;12.20;99.90
46652;DHT22;32377;52.182;5.398;2023-03-21T17:14:06;12.30;99.90
46652;DHT22;32377;52.182;5.398;2023-03-21T17:16:32;12.30;99.90
46652;DHT22;32377;52.182;5.398;2023-03-21T17:18:58;12.20;99.90
46652;DHT22;32377;52.182;5.398;2023-03-21T17:21:27;12.20;99.90
46652;DHT22;32377;52.182;5.398;2023-03-21T17:23:54;12.10;99.90
46652;DHT22;32377;52.182;5.398;2023-03-21T17:26:27;12.10;99.90
46652;DHT22;32377;52.182;5.398;2023-03-21T17:28:54;12.00;99.90
46652;DHT22;32377;52.182;5.398;2023-03-21T17:31:23;11.90;99.90
46652;DHT22;32377;52.182;5.398;2023-03-21T17:33:49;11.90;99.90
46652;DHT22;32377;52.182;5.398;2023-03-21T17:36:29;11.80;99.90
46652;DHT22;32377;52.182;5.398;2023-03-21T17:38:55;11.80;99.90